Time;durP1;ratioP1;P1;durP2;ratioP2;P2;SDS_P1;SDS_P2;PMS_P1;PMS_P2;Temp;Humidity;BMP_temperature;BMP_pressure;BME280_temperature;BME280_humidity;BME280_pressure;Samples;Min_cycle;Max_cycle;Signal;HPM_P1;HPM_P2
2023/12/22 00:01:55;;;;;;;25.13;5.22;;;5.90;99.90;;;;;;5015269;28;20046;-72
2023/12/22 00:04:21;;;;;;;23.75;5.53;;;5.80;99.90;;;;;;4960257;28;20492;-72
2023/12/22 00:06:48;;;;;;;21.85;5.28;;;5.80;99.90;;;;;;4964280;28;20051;-72
2023/12/22 00:09:14;;;;;;;22.80;5.38;;;5.80;99.90;;;;;;4962837;28;20077;-71
2023/12/22 00:11:40;;;;;;;18.33;4.78;;;5.90;99.90;;;;;;4961995;28;20051;-72
2023/12/22 00:14:05;;;;;;;21.67;5.63;;;5.90;99.90;;;;;;4963934;28;20043;-72
2023/12/22 00:16:31;;;;;;;23.40;5.65;;;6.00;99.90;;;;;;4965711;28;20039;-71
2023/12/22 00:18:57;;;;;;;21.75;5.80;;;6.00;99.90;;;;;;4951601;28;20043;-72
2023/12/22 00:21:23;;;;;;;27.00;5.60;;;6.10;99.90;;;;;;4962740;28;20134;-72
2023/12/22 00:23:49;;;;;;;24.50;5.50;;;6.10;99.90;;;;;;4962447;28;20188;-72
2023/12/22 00:26:15;;;;;;;28.23;6.03;;;6.20;99.90;;;;;;4954952;28;20043;-72
2023/12/22 00:28:41;;;;;;;27.17;5.32;;;6.00;99.90;;;;;;4961965;28;20050;-72
2023/12/22 00:31:07;;;;;;;20.27;5.35;;;6.00;99.90;;;;;;4956300;28;20528;-72
2023/12/22 00:33:33;;;;;;;21.30;5.35;;;6.00;99.90;;;;;;4959207;28;20047;-71
2023/12/22 00:35:59;;;;;;;27.83;5.25;;;6.10;99.90;;;;;;4980355;28;20046;-71
2023/12/22 00:38:24;;;;;;;23.13;5.22;;;6.10;99.90;;;;;;4961954;28;20055;-72
2023/12/22 00:40:50;;;;;;;17.83;5.07;;;6.10;99.90;;;;;;4995416;28;20483;-72
2023/12/22 00:43:16;;;;;;;21.83;4.75;;;6.10;99.90;;;;;;4978177;28;20104;-71
2023/12/22 00:45:42;;;;;;;16.83;4.90;;;6.10;99.90;;;;;;4946062;28;20046;-72
2023/12/22 00:48:07;;;;;;;20.52;4.63;;;6.10;99.90;;;;;;4964512;28;20062;-70
2023/12/22 00:50:33;;;;;;;15.80;3.80;;;6.20;99.90;;;;;;4958878;28;21168;-71
2023/12/22 00:52:59;;;;;;;18.42;4.25;;;6.20;99.90;;;;;;4979642;28;20434;-71
2023/12/22 00:55:25;;;;;;;16.38;3.90;;;6.20;99.90;;;;;;4960671;28;20039;-71
2023/12/22 00:57:53;;;;;;;20.20;4.70;;;6.20;99.90;;;;;;4964331;28;20128;-71
2023/12/22 01:00:19;;;;;;;20.88;4.70;;;6.10;99.90;;;;;;4960684;28;20081;-71
2023/12/22 01:02:44;;;;;;;21.73;5.13;;;6.20;99.90;;;;;;4968184;28;20514;-71
2023/12/22 01:05:10;;;;;;;21.58;4.97;;;6.20;99.90;;;;;;4960000;28;20051;-71
2023/12/22 01:07:36;;;;;;;20.55;5.00;;;6.30;99.90;;;;;;4966856;28;20050;-71
2023/12/22 01:10:03;;;;;;;23.30;5.25;;;6.30;99.90;;;;;;4959925;28;20046;-71
2023/12/22 01:12:30;;;;;;;19.38;5.43;;;6.30;99.90;;;;;;4955547;28;20061;-72
2023/12/22 01:14:58;;;;;;;26.58;5.82;;;6.30;99.90;;;;;;4947336;28;20039;-71
2023/12/22 01:17:24;;;;;;;21.70;4.80;;;6.40;99.90;;;;;;4958992;28;20042;-71
2023/12/22 01:19:51;;;;;;;19.65;5.70;;;6.40;99.90;;;;;;4963731;28;20068;-71
2023/12/22 01:22:16;;;;;;;20.35;5.32;;;6.40;99.90;;;;;;4977266;28;20518;-72
2023/12/22 01:24:43;;;;;;;19.30;4.93;;;6.40;99.90;;;;;;4993729;28;20054;-71
2023/12/22 01:27:10;;;;;;;23.02;4.97;;;6.30;99.90;;;;;;4945754;28;20061;-71
2023/12/22 01:29:35;;;;;;;21.30;4.80;;;6.40;99.90;;;;;;4982217;28;20047;-71
2023/12/22 01:32:01;;;;;;;19.10;5.03;;;6.50;99.90;;;;;;4977383;28;20235;-71
2023/12/22 01:34:27;;;;;;;25.50;5.35;;;6.50;99.90;;;;;;4964741;28;20047;-71
2023/12/22 01:36:53;;;;;;;26.85;4.80;;;6.50;99.90;;;;;;4960447;28;20043;-71
2023/12/22 01:39:18;;;;;;;22.08;4.65;;;6.50;99.90;;;;;;4977982;28;20067;-72
2023/12/22 01:41:44;;;;;;;20.00;4.75;;;6.40;99.90;;;;;;4946338;28;20541;-71
2023/12/22 01:44:10;;;;;;;15.10;4.40;;;6.40;99.90;;;;;;4961364;28;20039;-75
2023/12/22 01:46:36;;;;;;;18.35;3.95;;;6.40;99.90;;;;;;4943142;28;20061;-78
2023/12/22 01:49:02;;;;;;;14.65;4.00;;;6.50;99.90;;;;;;4958224;28;20050;-77
2023/12/22 01:51:32;;;;;;;18.40;4.20;;;6.50;99.90;;;;;;4967711;28;20044;-78
2023/12/22 01:53:58;;;;;;;;;;;6.50;99.90;;;;;;4991974;28;20729;-79
2023/12/22 01:56:28;;;;;;;19.70;4.60;;;6.50;99.90;;;;;;4970947;28;19966;-78
2023/12/22 01:58:59;;;;;;;17.83;4.43;;;6.50;99.90;;;;;;4946749;28;20165;-77
2023/12/22 02:01:25;;;;;;;23.52;4.70;;;6.50;99.90;;;;;;4974953;28;20491;-78
2023/12/22 02:03:52;;;;;;;22.77;4.43;;;6.50;99.90;;;;;;4953361;28;20439;-79
2023/12/22 02:06:19;;;;;;;20.90;5.10;;;6.60;99.90;;;;;;4947006;28;20046;-78
2023/12/22 02:08:47;;;;;;;17.83;4.30;;;6.50;99.90;;;;;;5041029;28;20043;-78
2023/12/22 02:11:14;;;;;;;23.25;5.10;;;6.50;99.90;;;;;;4989425;28;20074;-79
2023/12/22 02:13:41;;;;;;;18.45;4.53;;;6.50;99.90;;;;;;4943185;28;20073;-78
2023/12/22 02:16:18;;;;;;;18.88;5.22;;;6.50;99.90;;;;;;4975343;28;20114;-78
2023/12/22 02:18:47;;;;;;;22.75;5.10;;;6.50;99.90;;;;;;4977459;28;20115;-72
2023/12/22 02:21:12;;;;;;;21.30;5.53;;;6.50;99.90;;;;;;4969263;28;20047;-72
2023/12/22 02:23:38;;;;;;;23.95;5.15;;;6.50;99.90;;;;;;4992978;28;20473;-73
2023/12/22 02:26:17;;;;;;;20.45;5.63;;;6.50;99.90;;;;;;4962026;28;20078;-72
2023/12/22 02:28:46;;;;;;;26.08;5.57;;;6.50;99.90;;;;;;4964303;28;20047;-72
2023/12/22 02:31:33;;;;;;;24.88;5.57;;;6.60;99.90;;;;;;5031923;28;20046;-73
2023/12/22 02:33:59;;;;;;;21.08;4.93;;;6.50;99.90;;;;;;4963344;28;20047;-72
2023/12/22 02:36:27;;;;;;;26.27;6.22;;;6.40;99.90;;;;;;4979623;28;20496;-72
2023/12/22 02:38:54;;;;;;;21.13;5.38;;;6.40;99.90;;;;;;4958068;28;20057;-72
2023/12/22 02:41:21;;;;;;;23.92;5.18;;;6.40;99.90;;;;;;4964717;28;20046;-72
2023/12/22 02:43:48;;;;;;;16.92;4.72;;;6.40;99.90;;;;;;4949147;28;20133;-72
2023/12/22 02:46:17;;;;;;;16.27;4.25;;;6.40;99.90;;;;;;4963003;28;20058;-72
2023/12/22 02:48:42;;;;;;;13.50;3.72;;;6.50;99.90;;;;;;4973698;28;20043;-73
2023/12/22 02:51:08;;;;;;;16.38;3.38;;;6.60;99.90;;;;;;4978091;28;20103;-72
2023/12/22 02:53:34;;;;;;;14.15;2.92;;;6.60;99.90;;;;;;4979652;28;20078;-72
2023/12/22 02:56:00;;;;;;;16.40;3.03;;;6.70;99.90;;;;;;4961111;28;20051;-72
2023/12/22 02:58:28;;;;;;;14.70;3.40;;;6.70;99.90;;;;;;4951603;28;20097;-72
2023/12/22 03:00:54;;;;;;;15.32;2.97;;;6.70;99.90;;;;;;4952475;28;20131;-72
2023/12/22 03:03:20;;;;;;;14.07;3.08;;;6.70;99.90;;;;;;4989266;28;20122;-72
2023/12/22 03:05:46;;;;;;;18.73;3.92;;;6.70;99.90;;;;;;4964179;28;20047;-73
2023/12/22 03:08:11;;;;;;;17.25;3.88;;;6.70;99.90;;;;;;4949911;28;20051;-71
2023/12/22 03:10:37;;;;;;;15.10;3.45;;;6.70;99.90;;;;;;4943200;28;20079;-72
2023/12/22 03:13:03;;;;;;;16.80;3.22;;;6.60;99.90;;;;;;4936859;28;20268;-72
2023/12/22 03:15:29;;;;;;;13.90;3.25;;;6.60;99.90;;;;;;4961260;28;20039;-72
2023/12/22 03:17:54;;;;;;;11.73;3.40;;;6.60;99.90;;;;;;4978071;28;20043;-72
2023/12/22 03:20:20;;;;;;;13.13;2.85;;;6.60;99.90;;;;;;4960669;28;20045;-72
2023/12/22 03:22:46;;;;;;;16.65;2.92;;;6.50;99.90;;;;;;4993335;28;20057;-71
2023/12/22 03:25:12;;;;;;;13.57;2.22;;;6.40;99.90;;;;;;4974905;28;20499;-72
2023/12/22 03:27:38;;;;;;;13.95;2.90;;;6.40;99.90;;;;;;4994723;28;20047;-72
2023/12/22 03:30:04;;;;;;;11.40;2.38;;;6.40;99.90;;;;;;4968527;28;20079;-72
2023/12/22 03:32:30;;;;;;;10.88;2.50;;;6.30;99.90;;;;;;4962389;28;20047;-72
2023/12/22 03:34:56;;;;;;;11.13;2.30;;;6.20;99.90;;;;;;4946138;28;20047;-72
2023/12/22 03:37:21;;;;;;;14.27;2.80;;;6.20;99.90;;;;;;4984063;28;20046;-72
2023/12/22 03:39:47;;;;;;;12.38;2.53;;;6.20;99.90;;;;;;4991925;28;20053;-73
2023/12/22 03:42:13;;;;;;;12.98;3.15;;;6.20;99.90;;;;;;4983183;28;20062;-73
2023/12/22 03:44:38;;;;;;;13.73;3.58;;;6.20;99.90;;;;;;4963296;28;20126;-74
2023/12/22 03:47:04;;;;;;;10.68;2.50;;;6.20;99.90;;;;;;4988712;28;20525;-73
2023/12/22 03:49:30;;;;;;;17.98;3.35;;;6.10;99.90;;;;;;4964342;28;20058;-73
2023/12/22 03:51:56;;;;;;;16.27;3.25;;;6.10;99.90;;;;;;4966909;28;20054;-73
2023/12/22 03:54:21;;;;;;;17.23;3.47;;;6.10;99.90;;;;;;4973906;28;20035;-74
2023/12/22 03:56:47;;;;;;;14.07;3.05;;;6.10;99.90;;;;;;4986564;28;20043;-73
2023/12/22 03:59:13;;;;;;;22.17;4.15;;;6.10;99.90;;;;;;4980078;28;20066;-74
2023/12/22 04:01:39;;;;;;;19.27;4.28;;;6.10;99.90;;;;;;4962440;28;20732;-74
2023/12/22 04:04:04;;;;;;;17.90;4.57;;;6.10;99.90;;;;;;4951377;28;20038;-73
2023/12/22 04:06:30;;;;;;;21.60;3.70;;;6.10;99.90;;;;;;4984577;28;20047;-73
2023/12/22 04:08:56;;;;;;;17.60;4.55;;;6.10;99.90;;;;;;4980264;28;20499;-73
2023/12/22 04:11:21;;;;;;;18.80;4.95;;;6.10;99.90;;;;;;4977208;28;20395;-74
2023/12/22 04:13:47;;;;;;;17.45;4.07;;;6.20;99.90;;;;;;4978744;28;20058;-73
2023/12/22 04:16:13;;;;;;;19.13;4.55;;;6.10;99.90;;;;;;4993077;28;20493;-74
2023/12/22 04:18:39;;;;;;;22.42;5.28;;;6.20;99.90;;;;;;4968613;28;20089;-74
2023/12/22 04:21:04;;;;;;;19.88;4.28;;;6.20;99.90;;;;;;4944994;28;20105;-73
2023/12/22 04:23:30;;;;;;;18.08;4.07;;;6.20;99.90;;;;;;4959786;28;20050;-74
2023/12/22 04:25:56;;;;;;;21.70;4.47;;;6.30;99.90;;;;;;4955079;28;20049;-74
2023/12/22 04:28:21;;;;;;;17.92;3.97;;;6.30;99.90;;;;;;4959977;28;20039;-73
2023/12/22 04:30:47;;;;;;;17.23;4.15;;;6.40;99.90;;;;;;4960922;28;20047;-74
2023/12/22 04:33:13;;;;;;;19.30;4.38;;;6.40;99.90;;;;;;4975894;28;20039;-74
2023/12/22 04:35:39;;;;;;;15.43;4.22;;;6.40;99.90;;;;;;4955169;28;20302;-74
2023/12/22 04:38:05;;;;;;;19.15;4.72;;;6.50;99.90;;;;;;4958429;28;20510;-73
2023/12/22 04:40:31;;;;;;;20.77;4.60;;;6.50;99.90;;;;;;4961712;28;20093;-73
2023/12/22 04:42:57;;;;;;;21.75;5.03;;;6.50;99.90;;;;;;4948528;28;20112;-74
2023/12/22 04:45:22;;;;;;;17.58;3.88;;;6.60;99.90;;;;;;4951381;28;20047;-73
2023/12/22 04:47:48;;;;;;;17.77;4.32;;;6.60;99.90;;;;;;4949275;28;20043;-74
2023/12/22 04:50:14;;;;;;;18.23;4.20;;;6.60;99.90;;;;;;4950115;28;20054;-73
2023/12/22 04:52:40;;;;;;;22.40;6.05;;;6.70;99.90;;;;;;4988059;28;20399;-73
2023/12/22 04:55:06;;;;;;;21.45;4.43;;;6.70;99.90;;;;;;4962585;28;20534;-74
2023/12/22 04:57:31;;;;;;;21.27;5.03;;;6.70;99.90;;;;;;4963594;28;20042;-73
2023/12/22 04:59:57;;;;;;;18.08;5.22;;;6.80;99.90;;;;;;4956225;28;20039;-73
2023/12/22 05:02:23;;;;;;;24.63;5.22;;;6.80;99.90;;;;;;4972344;28;20713;-74
2023/12/22 05:04:49;;;;;;;19.55;4.72;;;6.80;99.90;;;;;;4990580;28;20085;-73
2023/12/22 05:07:14;;;;;;;21.60;5.13;;;6.80;99.90;;;;;;4961028;28;20394;-73
2023/12/22 05:09:43;;;;;;;18.08;3.80;;;6.80;99.90;;;;;;4958263;28;20481;-74
2023/12/22 05:12:09;;;;;;;23.08;5.05;;;6.80;99.90;;;;;;4963630;28;20054;-73
2023/12/22 05:14:35;;;;;;;19.25;4.47;;;6.80;99.90;;;;;;4964182;28;20042;-73
2023/12/22 05:17:01;;;;;;;19.17;4.97;;;6.80;99.90;;;;;;4959104;28;20449;-74
2023/12/22 05:19:27;;;;;;;25.50;5.75;;;6.80;99.90;;;;;;4963885;28;20136;-74
2023/12/22 05:21:55;;;;;;;21.50;4.60;;;6.80;99.90;;;;;;4965766;28;20085;-73
2023/12/22 05:24:22;;;;;;;21.77;5.45;;;6.80;99.90;;;;;;4959636;28;20043;-74
2023/12/22 05:26:47;;;;;;;16.98;4.07;;;6.90;99.90;;;;;;4958428;28;20540;-73
2023/12/22 05:29:13;;;;;;;25.13;4.80;;;6.90;99.90;;;;;;4963931;28;20047;-74
2023/12/22 05:31:39;;;;;;;16.55;3.78;;;6.90;99.90;;;;;;4964542;28;20489;-73
2023/12/22 05:34:05;;;;;;;20.98;4.15;;;6.90;99.90;;;;;;4949644;28;20035;-74
2023/12/22 05:36:31;;;;;;;17.00;4.70;;;6.90;99.90;;;;;;4965214;28;20096;-74
2023/12/22 05:38:57;;;;;;;15.13;4.28;;;6.80;99.90;;;;;;4951293;28;20086;-73
2023/12/22 05:41:23;;;;;;;16.60;3.92;;;6.90;99.90;;;;;;4989308;28;20079;-73
2023/12/22 05:43:48;;;;;;;16.98;3.75;;;6.90;99.90;;;;;;4964511;28;20055;-73
2023/12/22 05:46:14;;;;;;;19.95;3.70;;;7.00;99.90;;;;;;4964910;28;20051;-74
2023/12/22 05:48:40;;;;;;;19.42;4.70;;;7.00;99.90;;;;;;4973257;28;20058;-74
2023/12/22 05:51:09;;;;;;;20.23;4.22;;;7.00;99.90;;;;;;4947030;28;20046;-73
2023/12/22 05:53:35;;;;;;;17.58;4.45;;;7.00;99.90;;;;;;4948573;28;20051;-80
2023/12/22 05:56:01;;;;;;;18.23;3.53;;;7.00;99.90;;;;;;4975593;28;20470;-81
2023/12/22 05:58:27;;;;;;;16.45;4.60;;;7.00;99.90;;;;;;4964574;28;20039;-80
2023/12/22 06:00:52;;;;;;;21.77;5.00;;;7.00;99.90;;;;;;4957502;28;20613;-81
2023/12/22 06:03:18;;;;;;;19.95;4.70;;;7.00;99.90;;;;;;4964100;28;20043;-80
2023/12/22 06:05:44;;;;;;;19.95;3.83;;;6.90;99.90;;;;;;4976891;28;20043;-81
2023/12/22 06:08:10;;;;;;;19.33;4.63;;;7.00;99.90;;;;;;4967770;28;20055;-79
2023/12/22 06:10:36;;;;;;;18.48;4.20;;;6.90;99.90;;;;;;4966711;28;20137;-79
2023/12/22 06:13:03;;;;;;;16.85;4.05;;;6.90;99.90;;;;;;4971734;28;20105;-73
2023/12/22 06:15:30;;;;;;;14.18;3.92;;;6.90;99.90;;;;;;4987150;28;20160;-73
2023/12/22 06:17:58;;;;;;;17.10;3.85;;;6.90;99.90;;;;;;4959000;28;20047;-72
2023/12/22 06:20:24;;;;;;;18.92;4.63;;;6.80;99.90;;;;;;4973524;28;20138;-73
2023/12/22 06:22:50;;;;;;;18.52;3.80;;;6.80;99.90;;;;;;4961586;28;20496;-72
2023/12/22 06:25:15;;;;;;;17.10;3.92;;;6.90;99.90;;;;;;4963202;28;20100;-73
2023/12/22 06:27:41;;;;;;;19.13;4.20;;;6.90;99.90;;;;;;4961734;28;20055;-73
2023/12/22 06:30:07;;;;;;;18.83;3.53;;;7.00;99.90;;;;;;4953240;28;20064;-73
2023/12/22 06:32:33;;;;;;;18.67;4.00;;;6.90;99.90;;;;;;4956606;28;20050;-73
2023/12/22 06:35:00;;;;;;;22.63;4.32;;;7.00;99.90;;;;;;4961132;28;20042;-74
2023/12/22 06:37:26;;;;;;;14.27;3.63;;;7.00;99.90;;;;;;4959048;28;20081;-73
2023/12/22 06:39:52;;;;;;;18.02;3.97;;;7.00;99.90;;;;;;4958909;28;20108;-73
2023/12/22 06:42:17;;;;;;;16.17;3.63;;;7.00;99.90;;;;;;4959174;28;20082;-73
2023/12/22 06:44:43;;;;;;;15.77;3.58;;;7.00;99.90;;;;;;4959231;28;20054;-73
2023/12/22 06:47:09;;;;;;;15.82;3.75;;;7.00;99.90;;;;;;5001380;28;20115;-74
2023/12/22 06:49:35;;;;;;;15.57;3.90;;;7.00;99.90;;;;;;4991951;28;20495;-73
2023/12/22 06:52:01;;;;;;;15.73;3.75;;;7.00;99.90;;;;;;4975679;28;20507;-73
2023/12/22 06:54:27;;;;;;;16.55;3.97;;;7.00;99.90;;;;;;4962065;28;20051;-73
2023/12/22 06:56:52;;;;;;;16.80;3.50;;;7.00;99.90;;;;;;4984634;28;20380;-74
2023/12/22 06:59:18;;;;;;;14.52;3.58;;;6.90;99.90;;;;;;4964173;28;20050;-73
2023/12/22 07:01:44;;;;;;;16.75;4.30;;;7.00;99.90;;;;;;4979118;28;20043;-73
2023/12/22 07:04:10;;;;;;;18.33;3.63;;;6.90;99.90;;;;;;4990109;28;20043;-74
2023/12/22 07:06:35;;;;;;;14.07;3.33;;;6.90;99.90;;;;;;4977066;28;20045;-73
2023/12/22 07:09:19;;;;;;;16.35;4.18;;;6.90;99.90;;;;;;4992067;28;20043;-74
2023/12/22 07:11:50;;;;;;;18.33;4.05;;;6.90;99.90;;;;;;4981721;28;20103;-74
2023/12/22 07:14:16;;;;;;;18.90;3.75;;;6.90;99.90;;;;;;4963606;28;20654;-73
2023/12/22 07:16:42;;;;;;;14.48;4.72;;;6.90;99.90;;;;;;4949362;28;20038;-74
2023/12/22 07:19:08;;;;;;;16.48;3.63;;;6.80;99.90;;;;;;4966812;28;20062;-74
2023/12/22 07:21:34;;;;;;;19.92;3.72;;;6.90;99.90;;;;;;4949569;28;20050;-80
2023/12/22 07:24:00;;;;;;;20.02;4.10;;;6.90;99.90;;;;;;4989501;28;20047;-79
2023/12/22 07:26:27;;;;;;;16.63;3.28;;;7.00;99.90;;;;;;4964554;28;20075;-80
2023/12/22 07:28:53;;;;;;;18.77;4.07;;;6.90;99.90;;;;;;4965497;28;20050;-80
2023/12/22 07:31:19;;;;;;;18.55;4.35;;;6.90;99.90;;;;;;4948849;28;20457;-74
2023/12/22 07:33:45;;;;;;;14.20;3.90;;;6.90;99.90;;;;;;4953667;28;20106;-74
2023/12/22 07:36:11;;;;;;;18.33;3.55;;;6.90;99.90;;;;;;4957408;28;20169;-74
2023/12/22 07:38:39;;;;;;;12.63;3.97;;;6.90;99.90;;;;;;4966977;28;20057;-74
2023/12/22 07:41:05;;;;;;;15.48;3.53;;;6.90;99.90;;;;;;4963866;28;20058;-74
2023/12/22 07:43:31;;;;;;;21.65;4.90;;;6.90;99.90;;;;;;4997848;28;20513;-74
2023/12/22 07:45:57;;;;;;;20.27;4.13;;;6.90;99.90;;;;;;4972569;28;20047;-74
2023/12/22 07:48:23;;;;;;;17.10;3.63;;;6.90;99.90;;;;;;4963178;28;21258;-73
2023/12/22 07:50:50;;;;;;;18.67;3.67;;;6.90;99.90;;;;;;5031247;28;20224;-74
2023/12/22 07:53:15;;;;;;;21.65;4.75;;;6.90;99.90;;;;;;4965410;28;20047;-74
2023/12/22 07:55:41;;;;;;;20.45;3.90;;;6.90;99.90;;;;;;4957974;28;20107;-74
2023/12/22 07:58:07;;;;;;;16.88;3.63;;;6.90;99.90;;;;;;4953625;28;20038;-74
2023/12/22 08:00:33;;;;;;;14.35;3.28;;;6.90;99.90;;;;;;4964202;28;20050;-74
2023/12/22 08:03:00;;;;;;;16.70;4.22;;;6.80;99.90;;;;;;4964106;28;20712;-74
2023/12/22 08:05:26;;;;;;;14.48;3.65;;;6.80;99.90;;;;;;4949837;28;20046;-73
2023/12/22 08:07:52;;;;;;;21.00;4.97;;;6.90;99.90;;;;;;4988100;28;20454;-74
2023/12/22 08:10:18;;;;;;;18.55;4.05;;;6.90;99.90;;;;;;4958722;28;20099;-74
2023/12/22 08:12:44;;;;;;;17.13;4.15;;;6.90;99.90;;;;;;4988654;28;20046;-74
2023/12/22 08:15:13;;;;;;;15.57;3.40;;;6.90;99.90;;;;;;4994675;28;20051;-74
2023/12/22 08:17:48;;;;;;;15.93;3.60;;;6.90;99.90;;;;;;4955120;28;20066;-73
2023/12/22 08:20:19;;;;;;;19.10;3.90;;;7.00;99.90;;;;;;4960595;28;20152;-74
2023/12/22 08:22:49;;;;;;;14.95;3.65;;;7.00;99.90;;;;;;4961339;28;20717;-74
2023/12/22 08:25:20;;;;;;;25.40;5.15;;;7.00;99.90;;;;;;4953430;28;20173;-74
2023/12/22 08:27:46;;;;;;;19.80;4.00;;;7.10;99.90;;;;;;4962807;28;20157;-74
2023/12/22 08:30:12;;;;;;;18.17;4.57;;;7.00;99.90;;;;;;4962514;28;20135;-74
2023/12/22 08:32:38;;;;;;;22.70;4.38;;;7.10;99.90;;;;;;4947392;28;20061;-73
2023/12/22 08:35:05;;;;;;;20.35;4.05;;;7.10;99.90;;;;;;4961606;28;20889;-74
2023/12/22 08:37:31;;;;;;;14.60;3.17;;;7.10;99.90;;;;;;4976679;28;20118;-74
2023/12/22 08:39:57;;;;;;;14.60;3.30;;;7.20;99.90;;;;;;4967135;28;20185;-73
2023/12/22 08:42:24;;;;;;;13.23;3.05;;;7.20;99.90;;;;;;4993055;28;20521;-74
2023/12/22 08:44:50;;;;;;;9.63;2.72;;;7.20;99.90;;;;;;4977367;28;20193;-74
2023/12/22 08:47:16;;;;;;;12.07;2.55;;;7.10;99.90;;;;;;4947378;28;20127;-73
2023/12/22 08:49:42;;;;;;;10.73;2.00;;;7.10;99.90;;;;;;4962109;28;20046;-73
2023/12/22 08:52:08;;;;;;;7.03;1.75;;;7.10;99.90;;;;;;4956389;28;20049;-73
2023/12/22 08:54:35;;;;;;;10.15;1.92;;;7.00;99.90;;;;;;4963012;28;20051;-73
2023/12/22 08:57:01;;;;;;;9.95;1.73;;;7.00;99.90;;;;;;4961755;28;20095;-73
2023/12/22 08:59:27;;;;;;;9.90;1.85;;;6.90;99.90;;;;;;4963176;28;20039;-73
2023/12/22 09:01:53;;;;;;;6.45;1.45;;;6.80;99.90;;;;;;4944558;28;20043;-73
2023/12/22 09:04:21;;;;;;;5.90;1.20;;;6.80;99.90;;;;;;4951552;28;20487;-73
2023/12/22 09:06:46;;;;;;;5.95;1.00;;;6.70;99.90;;;;;;4975354;28;20480;-74
2023/12/22 09:09:12;;;;;;;4.68;1.10;;;6.80;99.90;;;;;;4978995;28;20051;-73
2023/12/22 09:11:38;;;;;;;6.28;1.50;;;6.80;99.90;;;;;;4961220;28;20076;-74
2023/12/22 09:14:09;;;;;;;6.72;1.38;;;6.70;99.90;;;;;;4975452;28;20092;-73
2023/12/22 09:16:35;;;;;;;6.53;1.00;;;6.80;99.90;;;;;;4960927;28;20462;-74
2023/12/22 09:19:01;;;;;;;6.40;1.45;;;6.80;99.90;;;;;;4961262;28;20043;-74
2023/12/22 09:21:27;;;;;;;5.40;1.08;;;6.80;99.90;;;;;;4962463;28;20034;-74
2023/12/22 09:23:53;;;;;;;5.70;1.20;;;6.80;99.90;;;;;;4974546;28;20542;-74
2023/12/22 09:26:18;;;;;;;6.32;1.00;;;6.90;99.90;;;;;;4962030;28;20043;-74
2023/12/22 09:28:46;;;;;;;4.20;1.00;;;6.90;99.90;;;;;;4959336;28;20207;-74
2023/12/22 09:31:14;;;;;;;7.15;2.15;;;6.90;99.90;;;;;;4961046;28;20116;-74
2023/12/22 09:33:41;;;;;;;6.43;1.63;;;6.90;99.90;;;;;;4976075;28;20047;-74
2023/12/22 09:36:08;;;;;;;4.28;1.00;;;6.90;99.90;;;;;;4961995;28;20039;-75
2023/12/22 09:38:33;;;;;;;9.57;1.75;;;6.90;99.90;;;;;;4962069;28;20047;-74
2023/12/22 09:41:00;;;;;;;6.55;1.35;;;6.90;99.90;;;;;;4975741;28;20058;-73
2023/12/22 09:43:26;;;;;;;6.07;1.80;;;6.90;99.90;;;;;;4958330;28;20039;-74
2023/12/22 09:45:53;;;;;;;10.60;1.92;;;7.00;99.90;;;;;;4979237;28;20065;-73
2023/12/22 09:48:26;;;;;;;7.57;1.52;;;7.00;99.90;;;;;;4976163;28;20054;-74
2023/12/22 09:50:54;;;;;;;5.93;1.45;;;7.00;99.90;;;;;;4946548;28;20101;-74
2023/12/22 09:53:20;;;;;;;10.15;1.88;;;7.00;99.90;;;;;;4974913;28;20058;-74
2023/12/22 09:55:48;;;;;;;8.38;1.77;;;7.00;99.90;;;;;;4976190;28;20039;-73
2023/12/22 09:58:15;;;;;;;10.23;2.20;;;7.00;99.90;;;;;;4958393;28;20054;-74
2023/12/22 10:00:41;;;;;;;11.30;1.98;;;7.00;99.90;;;;;;4977268;28;20066;-74
2023/12/22 10:03:09;;;;;;;8.23;2.22;;;7.10;99.90;;;;;;4973343;28;20055;-74
2023/12/22 10:05:35;;;;;;;7.47;1.60;;;7.10;99.90;;;;;;4961859;28;20553;-74
2023/12/22 10:08:01;;;;;;;8.48;2.08;;;7.10;99.90;;;;;;4959514;28;20050;-74
2023/12/22 10:10:29;;;;;;;8.15;2.30;;;7.10;99.90;;;;;;4976226;28;20047;-74
2023/12/22 10:12:56;;;;;;;9.38;2.20;;;7.10;99.90;;;;;;4959382;28;20054;-74
2023/12/22 10:15:23;;;;;;;11.85;2.30;;;7.10;99.90;;;;;;4975535;28;20055;-74
2023/12/22 10:17:51;;;;;;;15.68;2.90;;;7.10;99.90;;;;;;4961394;28;20418;-74
2023/12/22 10:20:16;;;;;;;12.15;1.83;;;7.10;99.90;;;;;;4959435;28;20038;-74
2023/12/22 10:22:42;;;;;;;12.13;2.90;;;7.20;99.90;;;;;;4985074;28;20054;-74
2023/12/22 10:25:08;;;;;;;11.05;2.28;;;7.20;99.90;;;;;;5045990;28;20054;-74
2023/12/22 10:27:36;;;;;;;15.02;2.70;;;7.20;99.90;;;;;;4960786;28;20107;-74
2023/12/22 10:30:03;;;;;;;10.70;2.70;;;7.20;99.90;;;;;;4975324;28;20050;-74
2023/12/22 10:32:29;;;;;;;12.93;2.92;;;7.20;99.90;;;;;;4957322;28;20039;-74
2023/12/22 10:34:57;;;;;;;13.77;3.05;;;7.30;99.90;;;;;;4961780;28;20578;-74
2023/12/22 10:37:23;;;;;;;14.90;2.75;;;7.30;99.90;;;;;;4989632;28;20136;-75
2023/12/22 10:39:53;;;;;;;11.35;2.50;;;7.30;99.90;;;;;;4976539;28;20081;-74
2023/12/22 10:42:20;;;;;;;13.50;2.63;;;7.30;99.90;;;;;;4976538;28;20043;-74
2023/12/22 10:44:46;;;;;;;13.27;2.97;;;7.30;99.90;;;;;;4975788;28;20055;-74
2023/12/22 10:47:12;;;;;;;13.20;2.90;;;7.30;99.90;;;;;;4946123;28;20108;-74
2023/12/22 10:49:37;;;;;;;12.45;2.78;;;7.20;99.90;;;;;;4958005;28;20418;-74
2023/12/22 10:53:27;;;;;;;13.40;2.60;;;7.20;99.90;;;;;;5192686;27;20645;-74
2023/12/22 10:55:53;;;;;;;15.32;2.70;;;7.20;99.90;;;;;;5159218;27;20042;-74
2023/12/22 10:58:19;;;;;;;10.65;2.55;;;7.20;99.90;;;;;;5160554;27;20492;-73
2023/12/22 11:00:51;;;;;;;13.60;2.75;;;7.20;99.90;;;;;;5144453;27;20563;-73
2023/12/22 11:03:23;;;;;;;13.85;2.72;;;7.30;99.90;;;;;;5162466;27;20058;-73
2023/12/22 11:05:53;;;;;;;11.40;3.00;;;7.20;99.90;;;;;;5049274;27;2147294;-73
2023/12/22 11:08:21;;;;;;;12.93;2.80;;;7.30;99.90;;;;;;5101904;27;20051;-73
2023/12/22 11:10:52;;;;;;;11.20;2.30;;;7.30;99.90;;;;;;5098192;27;20043;-73
2023/12/22 11:13:19;;;;;;;13.90;3.05;;;7.30;99.90;;;;;;5120396;27;20043;-73
2023/12/22 11:15:46;;;;;;;15.10;2.45;;;7.40;99.90;;;;;;5116656;27;20133;-73
2023/12/22 11:18:12;;;;;;;12.80;2.33;;;7.30;99.90;;;;;;5099130;27;20067;-73
2023/12/22 11:20:39;;;;;;;9.48;2.00;;;7.40;99.90;;;;;;5110185;27;20103;-74
2023/12/22 11:23:06;;;;;;;12.48;2.53;;;7.40;99.90;;;;;;5099188;27;20051;-74
2023/12/22 11:25:34;;;;;;;9.88;2.25;;;7.40;99.90;;;;;;5119269;27;20035;-73
2023/12/22 11:28:02;;;;;;;9.13;2.15;;;7.40;99.90;;;;;;5113932;27;20039;-74
2023/12/22 11:30:29;;;;;;;10.10;1.90;;;7.50;99.90;;;;;;5113094;27;20031;-74
2023/12/22 11:32:57;;;;;;;7.53;1.95;;;7.50;99.90;;;;;;5109264;27;20397;-73
2023/12/22 11:35:24;;;;;;;10.45;2.08;;;7.50;99.90;;;;;;5117281;27;20059;-73
2023/12/22 11:37:50;;;;;;;8.07;2.22;;;7.50;99.90;;;;;;5093037;27;20039;-73
2023/12/22 11:40:16;;;;;;;7.80;2.13;;;7.50;99.90;;;;;;5116803;27;20062;-73
2023/12/22 11:42:50;;;;;;;12.27;2.00;;;7.50;99.90;;;;;;5119962;27;20035;-75
2023/12/22 11:45:18;;;;;;;12.15;2.38;;;7.60;99.90;;;;;;5118203;27;20047;-72
2023/12/22 11:47:46;;;;;;;14.55;2.35;;;7.60;99.90;;;;;;5092102;27;20040;-75
2023/12/22 11:50:12;;;;;;;7.68;1.90;;;7.60;99.90;;;;;;5093108;27;20055;-74
2023/12/22 11:52:39;;;;;;;8.60;1.98;;;7.70;99.90;;;;;;5110957;27;20101;-74
2023/12/22 11:55:06;;;;;;;8.85;2.08;;;7.70;99.90;;;;;;5104413;27;20042;-74
2023/12/22 11:57:37;;;;;;;10.20;2.03;;;7.70;99.90;;;;;;5112445;27;20036;-74
2023/12/22 12:00:09;;;;;;;10.45;1.77;;;7.70;99.90;;;;;;5116478;27;20642;-74
2023/12/22 12:02:37;;;;;;;9.35;2.13;;;7.70;99.90;;;;;;5092714;27;20079;-74
2023/12/22 12:05:03;;;;;;;11.32;2.00;;;7.70;99.90;;;;;;5093201;27;20047;-75
2023/12/22 12:07:44;;;;;;;9.82;2.25;;;7.80;99.90;;;;;;5093019;27;20050;-75
2023/12/22 12:10:33;;;;;;;9.73;1.85;;;7.70;99.90;;;;;;5081618;27;20076;-74
2023/12/22 12:13:05;;;;;;;12.40;2.65;;;7.70;99.90;;;;;;5096179;27;20292;-74
2023/12/22 12:15:34;;;;;;;14.02;2.20;;;7.70;99.90;;;;;;5103942;27;20043;-74
2023/12/22 12:18:00;;;;;;;6.63;1.50;;;7.70;99.90;;;;;;5090838;27;20047;-74
2023/12/22 12:20:29;;;;;;;9.15;2.08;;;7.70;99.90;;;;;;5094060;27;20047;-74
2023/12/22 12:22:56;;;;;;;8.38;1.83;;;7.70;99.90;;;;;;5099904;27;20054;-74
2023/12/22 12:25:29;;;;;;;9.27;2.28;;;7.60;99.90;;;;;;5093581;27;20051;-74
2023/12/22 12:28:06;;;;;;;11.80;2.22;;;7.70;99.90;;;;;;5079236;27;20104;-74
2023/12/22 12:30:35;;;;;;;11.23;1.70;;;7.70;99.90;;;;;;5097758;28;20043;-74
2023/12/22 12:33:08;;;;;;;10.10;2.05;;;7.70;99.90;;;;;;5092906;27;20036;-74
2023/12/22 12:35:34;;;;;;;14.43;2.17;;;7.70;99.90;;;;;;5101046;27;20049;-75
2023/12/22 12:38:00;;;;;;;13.77;2.22;;;7.70;99.90;;;;;;5096445;27;20039;-74
2023/12/22 12:40:32;;;;;;;10.65;2.17;;;7.70;99.90;;;;;;5105615;27;20088;-74
2023/12/22 12:42:58;;;;;;;9.60;1.50;;;7.70;99.90;;;;;;5104856;27;20049;-75
2023/12/22 12:45:25;;;;;;;13.40;2.15;;;7.70;99.90;;;;;;5100320;27;20397;-75
2023/12/22 12:47:58;;;;;;;14.27;2.28;;;7.60;99.90;;;;;;5071271;27;20054;-74